Time;durP1;ratioP1;P1;durP2;ratioP2;P2;SDS_P1;SDS_P2;PMS_P1;PMS_P2;Temp;Humidity;BMP_temperature;BMP_pressure;BME280_temperature;BME280_humidity;BME280_pressure;Samples;Min_cycle;Max_cycle;Signal;HPM_P1;HPM_P2
2023/03/08 00:00:19;;;;;;;40.50;24.17;;;;;;;-0.23;100.00;99927.28;5242946;28;20538;-65
2023/03/08 00:02:52;;;;;;;45.40;27.17;;;;;;;-0.17;100.00;99926.16;5248853;28;20095;-65
2023/03/08 00:05:24;;;;;;;44.50;27.17;;;;;;;-0.21;100.00;99921.09;5249684;28;20053;-65
2023/03/08 00:07:55;;;;;;;41.03;25.70;;;;;;;-0.14;100.00;99929.50;5246296;28;20551;-65
2023/03/08 00:10:26;;;;;;;42.95;26.23;;;;;;;-0.13;100.00;99931.22;5247234;28;20550;-65
2023/03/08 00:12:58;;;;;;;45.38;26.52;;;;;;;-0.14;100.00;99923.41;5245499;28;20040;-65
2023/03/08 00:15:29;;;;;;;46.70;27.75;;;;;;;-0.17;100.00;99913.94;5247680;28;20063;-65
2023/03/08 00:18:00;;;;;;;40.05;26.83;;;;;;;0.03;100.00;99923.47;5248847;28;20037;-65
2023/03/08 00:20:32;;;;;;;42.88;27.05;;;;;;;-0.06;100.00;99916.03;5246237;28;20033;-65
2023/03/08 00:23:03;;;;;;;44.22;26.85;;;;;;;-0.07;100.00;99917.81;5243116;28;20032;-65
2023/03/08 00:25:34;;;;;;;48.05;27.30;;;;;;;-0.09;100.00;99930.13;5247016;28;20471;-65
2023/03/08 00:28:06;;;;;;;42.17;25.88;;;;;;;-0.03;100.00;99924.59;5247124;28;20529;-65
2023/03/08 00:30:37;;;;;;;45.92;27.02;;;;;;;-0.07;100.00;99928.28;5245980;28;20064;-65
2023/03/08 00:33:08;;;;;;;48.20;27.25;;;;;;;-0.01;100.00;99927.16;5248610;28;20029;-65
2023/03/08 00:35:40;;;;;;;43.55;27.75;;;;;;;-0.07;100.00;99925.66;5247187;28;20040;-65
2023/03/08 00:38:11;;;;;;;44.20;26.95;;;;;;;0.01;100.00;99927.94;5247018;28;20752;-65
2023/03/08 00:40:42;;;;;;;43.65;28.02;;;;;;;0.04;100.00;99921.69;5249233;28;20419;-65
2023/03/08 00:43:13;;;;;;;42.22;26.42;;;;;;;0.06;100.00;99923.31;5244531;28;20438;-65
2023/03/08 00:45:45;;;;;;;45.88;27.02;;;;;;;-0.02;100.00;99918.44;5245896;28;20214;-65
2023/03/08 00:48:16;;;;;;;46.78;27.98;;;;;;;-0.02;100.00;99921.06;5249902;28;20029;-65
2023/03/08 00:50:48;;;;;;;46.97;29.00;;;;;;;0.05;100.00;99916.38;5251335;28;20028;-66
2023/03/08 00:53:19;;;;;;;48.15;28.55;;;;;;;0.10;100.00;99911.75;5250477;28;20029;-65
2023/03/08 00:55:55;;;;;;;46.30;27.63;;;;;;;0.09;100.00;99915.28;5252482;28;20044;-65
2023/03/08 00:58:28;;;;;;;46.70;27.15;;;;;;;0.18;100.00;99911.38;5249992;28;20388;-65
2023/03/08 01:00:59;;;;;;;44.42;27.38;;;;;;;0.12;100.00;99909.91;5252253;28;20040;-65
2023/03/08 01:03:31;;;;;;;48.75;28.75;;;;;;;0.12;100.00;99912.53;5248700;28;20021;-65
2023/03/08 01:06:09;;;;;;;48.10;28.70;;;;;;;0.10;100.00;99903.88;5252895;28;20071;-65
2023/03/08 01:08:41;;;;;;;50.50;28.48;;;;;;;0.24;100.00;99907.63;5248158;28;20032;-65
2023/03/08 01:11:25;;;;;;;48.33;28.73;;;;;;;0.18;100.00;99904.34;5251255;28;20122;-65
2023/03/08 01:13:56;;;;;;;;;;;;;;;0.23;100.00;99896.28;5249259;28;20033;-65
2023/03/08 01:16:31;;;;;;;50.35;29.10;;;;;;;0.20;100.00;99893.78;5249427;28;19926;-65
2023/03/08 01:19:04;;;;;;;50.83;29.17;;;;;;;0.24;100.00;99884.84;5251004;28;20545;-65
2023/03/08 01:21:35;;;;;;;55.80;29.98;;;;;;;0.29;100.00;99876.72;5250051;28;20029;-65
2023/03/08 01:24:06;;;;;;;54.03;30.92;;;;;;;0.24;100.00;99873.50;5251390;28;20106;-65
2023/03/08 01:26:38;;;;;;;58.15;30.80;;;;;;;0.34;100.00;99870.34;5247100;28;20037;-65
2023/03/08 01:29:09;;;;;;;61.30;32.15;;;;;;;0.30;100.00;99870.56;5248599;28;20543;-65
2023/03/08 01:31:40;;;;;;;57.65;30.55;;;;;;;0.38;100.00;99860.53;5250280;28;20434;-65
2023/03/08 01:34:11;;;;;;;62.03;31.67;;;;;;;0.40;100.00;99853.44;5250985;28;20075;-65
2023/03/08 01:36:43;;;;;;;60.40;31.52;;;;;;;0.43;100.00;99844.59;5252767;28;20063;-64
2023/03/08 01:39:14;;;;;;;65.95;33.38;;;;;;;0.47;100.00;99840.88;5248561;28;20067;-65
2023/03/08 01:41:45;;;;;;;64.25;33.08;;;;;;;0.37;100.00;99848.38;5255007;28;20120;-65
2023/03/08 01:44:21;;;;;;;63.80;32.72;;;;;;;0.43;100.00;99840.19;5251583;28;20036;-65
2023/03/08 01:46:52;;;;;;;63.53;32.53;;;;;;;0.50;100.00;99836.31;5254083;28;20048;-64
2023/03/08 01:49:32;;;;;;;67.35;33.33;;;;;;;0.42;100.00;99835.00;5256275;28;20033;-64
2023/03/08 01:52:11;;;;;;;68.78;33.25;;;;;;;0.46;100.00;99823.41;5257640;28;20037;-64
2023/03/08 01:54:51;;;;;;;64.88;32.80;;;;;;;0.45;100.00;99832.22;5253996;28;20040;-64
2023/03/08 01:57:26;;;;;;;67.53;32.72;;;;;;;0.51;100.00;99826.66;5256868;28;20610;-64
2023/03/08 02:00:13;;;;;;;76.25;35.47;;;;;;;0.48;100.00;99827.69;5254087;28;20045;-64
2023/03/08 02:02:58;;;;;;;68.45;33.35;;;;;;;0.47;100.00;99823.34;5251856;28;20463;-64
2023/03/08 02:05:31;;;;;;;70.05;32.88;;;;;;;0.48;100.00;99824.19;5256214;28;20475;-64
2023/03/08 02:08:02;;;;;;;65.63;33.60;;;;;;;0.49;100.00;99816.25;5251454;28;22360;-64
2023/03/08 02:10:35;;;;;;;67.68;33.55;;;;;;;0.47;100.00;99820.72;5256279;28;20062;-64
2023/03/08 02:13:10;;;;;;;74.72;34.42;;;;;;;0.53;100.00;99816.94;5249521;28;20032;-64
2023/03/08 02:15:41;;;;;;;67.75;33.83;;;;;;;0.52;100.00;99808.22;5253262;28;20024;-64
2023/03/08 02:18:12;;;;;;;68.93;33.70;;;;;;;0.49;100.00;99804.91;5255207;28;20078;-64
2023/03/08 02:20:44;;;;;;;70.18;33.45;;;;;;;0.48;100.00;99793.56;5254095;28;20072;-64
2023/03/08 02:23:17;;;;;;;73.05;34.00;;;;;;;0.51;100.00;99784.69;5254811;28;20079;-64
2023/03/08 02:25:53;;;;;;;68.75;32.80;;;;;;;0.56;100.00;99778.25;5260685;28;20024;-64
2023/03/08 02:28:26;;;;;;;69.38;33.72;;;;;;;0.52;100.00;99776.72;5255055;28;20400;-64
2023/03/08 02:30:58;;;;;;;69.22;33.72;;;;;;;0.64;100.00;99780.47;5254748;28;20039;-64
2023/03/08 02:33:31;;;;;;;72.65;34.05;;;;;;;0.57;100.00;99784.34;5258863;28;20343;-64
2023/03/08 02:36:04;;;;;;;69.50;33.97;;;;;;;0.58;100.00;99772.94;5253327;28;20031;-64
2023/03/08 02:38:35;;;;;;;67.93;32.97;;;;;;;0.68;100.00;99768.03;5253791;28;20056;-64
2023/03/08 02:41:07;;;;;;;73.78;34.38;;;;;;;0.60;100.00;99765.81;5257692;28;20116;-64
2023/03/08 02:43:38;;;;;;;73.43;34.13;;;;;;;0.69;100.00;99764.47;5249567;28;20100;-64
2023/03/08 02:46:11;;;;;;;70.97;33.85;;;;;;;0.77;100.00;99772.81;5256790;28;20029;-64
2023/03/08 02:48:45;;;;;;;68.50;33.92;;;;;;;0.73;100.00;99759.00;5254728;28;20275;-64
2023/03/08 02:51:16;;;;;;;70.10;33.58;;;;;;;0.80;100.00;99758.66;5255203;28;20391;-64
2023/03/08 02:53:47;;;;;;;65.72;32.80;;;;;;;0.68;100.00;99760.16;5253147;28;20032;-64
2023/03/08 02:56:18;;;;;;;66.45;32.10;;;;;;;0.75;100.00;99754.50;5255720;28;20166;-64
2023/03/08 02:58:50;;;;;;;68.13;32.95;;;;;;;0.73;100.00;99755.50;5252054;28;20495;-64
2023/03/08 03:01:22;;;;;;;75.90;33.88;;;;;;;0.70;100.00;99753.06;5249693;28;20029;-64
2023/03/08 03:03:54;;;;;;;60.50;30.45;;;;;;;0.80;100.00;99751.63;5250384;28;20032;-64
2023/03/08 03:06:25;;;;;;;62.50;30.98;;;;;;;0.80;100.00;99751.63;5249434;28;20035;-63
2023/03/08 03:08:56;;;;;;;63.25;29.95;;;;;;;0.72;100.00;99745.94;5250274;28;20088;-64
2023/03/08 03:11:28;;;;;;;60.40;31.52;;;;;;;0.75;100.00;99728.25;5251367;28;20253;-64
2023/03/08 03:13:59;;;;;;;59.75;30.45;;;;;;;0.71;100.00;99726.72;5253048;28;20043;-64
2023/03/08 03:16:30;;;;;;;59.92;31.50;;;;;;;0.66;100.00;99728.75;5249375;28;20242;-63
2023/03/08 03:19:02;;;;;;;61.63;30.15;;;;;;;0.66;100.00;99727.91;5246254;28;20044;-64
2023/03/08 03:21:33;;;;;;;60.38;31.08;;;;;;;0.70;100.00;99727.66;5241708;28;20175;-63
2023/03/08 03:24:05;;;;;;;60.25;30.40;;;;;;;0.72;100.00;99722.31;5244985;28;20128;-64
2023/03/08 03:26:37;;;;;;;61.58;31.17;;;;;;;0.71;100.00;99724.09;5247486;28;20123;-64
2023/03/08 03:29:09;;;;;;;61.83;30.45;;;;;;;0.64;100.00;99719.28;5248919;28;20083;-64
2023/03/08 03:31:40;;;;;;;60.33;30.83;;;;;;;0.65;100.00;99700.78;5247535;28;20029;-63
2023/03/08 03:34:11;;;;;;;57.90;29.83;;;;;;;0.66;100.00;99692.00;5242803;28;20166;-64
2023/03/08 03:36:42;;;;;;;60.75;30.30;;;;;;;0.73;100.00;99682.88;5245348;28;20450;-64
2023/03/08 03:39:14;;;;;;;63.05;32.30;;;;;;;0.66;100.00;99680.66;5245663;28;20415;-64
2023/03/08 03:41:46;;;;;;;57.17;29.83;;;;;;;0.68;100.00;99682.25;5247983;28;20113;-63
2023/03/08 03:44:17;;;;;;;66.43;33.08;;;;;;;0.71;100.00;99686.47;5248109;28;20047;-63
2023/03/08 03:46:48;;;;;;;64.93;32.85;;;;;;;0.67;100.00;99677.97;5247987;28;20032;-64
2023/03/08 03:49:20;;;;;;;64.53;32.20;;;;;;;0.69;100.00;99683.09;5248182;28;20056;-64
2023/03/08 03:51:51;;;;;;;65.85;31.92;;;;;;;0.67;100.00;99682.34;5245917;28;20044;-64
2023/03/08 03:54:22;;;;;;;63.88;32.03;;;;;;;0.65;100.00;99682.41;5246102;28;20463;-64
2023/03/08 03:56:56;;;;;;;63.47;31.40;;;;;;;0.75;100.00;99675.75;5248800;28;20112;-64
2023/03/08 03:59:28;;;;;;;60.85;32.20;;;;;;;0.74;100.00;99666.16;5245783;28;20091;-64
2023/03/08 04:01:59;;;;;;;62.67;30.27;;;;;;;0.65;100.00;99668.44;5243412;28;20021;-64
2023/03/08 04:04:30;;;;;;;59.90;31.40;;;;;;;0.70;100.00;99666.44;5246170;28;20017;-64
2023/03/08 04:07:02;;;;;;;57.88;30.17;;;;;;;0.66;100.00;99655.25;5247401;28;20025;-64
2023/03/08 04:09:34;;;;;;;57.10;29.90;;;;;;;0.64;100.00;99656.28;5244645;28;20111;-64
2023/03/08 04:12:05;;;;;;;58.28;30.88;;;;;;;0.68;100.00;99655.16;5248171;28;20028;-64
2023/03/08 04:14:39;;;;;;;52.40;27.35;;;;;;;0.67;100.00;99642.97;5252227;28;20379;-64
2023/03/08 04:17:10;;;;;;;54.25;28.40;;;;;;;0.67;100.00;99646.47;5252553;28;20079;-64
2023/03/08 04:19:41;;;;;;;51.92;27.73;;;;;;;0.74;100.00;99639.06;5251419;28;20455;-64
2023/03/08 04:22:12;;;;;;;52.30;27.45;;;;;;;0.70;100.00;99627.06;5251509;28;20028;-64
2023/03/08 04:24:44;;;;;;;50.55;26.20;;;;;;;0.72;100.00;99630.44;5253042;28;20410;-64
2023/03/08 04:27:15;;;;;;;51.28;25.30;;;;;;;0.69;100.00;99625.34;5253074;28;20495;-64
2023/03/08 04:29:46;;;;;;;45.92;25.17;;;;;;;0.76;100.00;99624.91;5254725;28;20111;-63
2023/03/08 04:32:18;;;;;;;43.70;24.27;;;;;;;0.70;100.00;99616.56;5251003;28;20108;-64
2023/03/08 04:34:49;;;;;;;44.40;23.40;;;;;;;0.67;100.00;99601.84;5253935;28;20029;-64
2023/03/08 04:37:20;;;;;;;46.45;24.35;;;;;;;0.64;100.00;99604.63;5253236;28;20036;-64
2023/03/08 04:39:51;;;;;;;41.58;22.30;;;;;;;0.64;100.00;99598.53;5249789;28;20032;-63
2023/03/08 04:42:23;;;;;;;40.50;22.27;;;;;;;0.69;100.00;99602.59;5255249;28;20091;-63
2023/03/08 04:44:54;;;;;;;38.42;20.80;;;;;;;0.62;100.00;99600.41;5249666;28;20029;-64
2023/03/08 04:47:25;;;;;;;41.22;22.23;;;;;;;0.57;100.00;99590.13;5251737;28;20723;-63
2023/03/08 04:49:57;;;;;;;39.38;21.08;;;;;;;0.60;100.00;99594.38;5251658;28;20086;-63
2023/03/08 04:52:28;;;;;;;38.95;20.90;;;;;;;0.63;100.00;99595.03;5245021;28;20036;-63
2023/03/08 04:54:59;;;;;;;39.67;21.15;;;;;;;0.51;100.00;99580.81;5250158;28;20028;-64
2023/03/08 04:57:30;;;;;;;35.85;19.83;;;;;;;0.58;100.00;99579.56;5252872;28;20029;-64
2023/03/08 05:00:04;;;;;;;35.72;18.67;;;;;;;0.56;100.00;99575.34;5247781;28;20029;-63
2023/03/08 05:02:35;;;;;;;32.78;19.77;;;;;;;0.58;100.00;99566.44;5247555;28;20025;-64
2023/03/08 05:05:07;;;;;;;32.30;18.65;;;;;;;0.57;100.00;99551.59;5244107;28;20819;-63
2023/03/08 05:07:38;;;;;;;34.72;18.17;;;;;;;0.62;100.00;99550.53;5249829;28;20440;-63
2023/03/08 05:10:10;;;;;;;36.15;19.25;;;;;;;0.63;100.00;99560.91;5250869;28;20035;-63
2023/03/08 05:12:41;;;;;;;36.03;19.88;;;;;;;0.63;100.00;99544.31;5253118;28;20029;-64
2023/03/08 05:15:12;;;;;;;36.67;19.88;;;;;;;0.59;100.00;99543.66;5250806;28;20119;-64
2023/03/08 05:17:44;;;;;;;35.20;18.52;;;;;;;0.60;100.00;99529.59;5253880;28;20557;-63
2023/03/08 05:20:15;;;;;;;33.67;18.98;;;;;;;0.62;100.00;99532.16;5254760;28;20041;-64
2023/03/08 05:22:47;;;;;;;34.15;18.73;;;;;;;0.58;100.00;99537.56;5252887;28;20109;-63
2023/03/08 05:25:18;;;;;;;36.08;19.45;;;;;;;0.70;100.00;99528.13;5243574;28;20107;-64
2023/03/08 05:27:49;;;;;;;34.25;18.92;;;;;;;0.67;100.00;99516.97;5244352;28;20060;-63
2023/03/08 05:30:21;;;;;;;36.63;19.63;;;;;;;0.64;100.00;99520.63;5244009;28;20063;-63
2023/03/08 05:32:52;;;;;;;34.15;18.90;;;;;;;0.66;100.00;99510.88;5244719;28;20114;-64
2023/03/08 05:35:23;;;;;;;34.20;18.55;;;;;;;0.61;100.00;99512.91;5245737;28;20126;-64
2023/03/08 05:37:55;;;;;;;36.67;19.08;;;;;;;0.60;100.00;99497.28;5243871;28;20166;-64
2023/03/08 05:40:26;;;;;;;32.17;17.65;;;;;;;0.70;100.00;99493.19;5244220;28;20086;-64
2023/03/08 05:42:57;;;;;;;35.60;18.60;;;;;;;0.67;100.00;99485.47;5253571;28;20033;-64
2023/03/08 05:45:28;;;;;;;33.30;18.08;;;;;;;0.62;100.00;99479.66;5247185;28;20059;-64
2023/03/08 05:48:00;;;;;;;30.63;16.15;;;;;;;0.56;100.00;99476.44;5253083;28;20025;-64
2023/03/08 05:50:31;;;;;;;28.48;15.68;;;;;;;0.58;100.00;99474.56;5245735;28;20499;-64
2023/03/08 05:53:02;;;;;;;29.35;15.70;;;;;;;0.57;100.00;99472.03;5246487;28;20056;-64
2023/03/08 05:55:34;;;;;;;28.25;15.02;;;;;;;0.59;100.00;99464.91;5243711;28;20360;-64
2023/03/08 05:58:05;;;;;;;24.98;13.48;;;;;;;0.51;100.00;99452.22;5248813;28;20056;-64
2023/03/08 06:00:36;;;;;;;19.63;10.18;;;;;;;0.42;100.00;99452.75;5242848;28;20431;-64
2023/03/08 06:03:08;;;;;;;21.10;10.82;;;;;;;0.45;100.00;99442.09;5248810;28;20025;-64
2023/03/08 06:05:39;;;;;;;18.15;10.27;;;;;;;0.42;100.00;99439.63;5250632;28;20032;-64
2023/03/08 06:08:10;;;;;;;22.20;11.18;;;;;;;0.34;100.00;99439.25;5248948;28;20037;-64
2023/03/08 06:10:41;;;;;;;18.98;10.57;;;;;;;0.25;100.00;99434.50;5250521;28;20386;-64
2023/03/08 06:13:13;;;;;;;21.27;10.85;;;;;;;0.31;100.00;99442.06;5238751;28;20068;-64
2023/03/08 06:15:44;;;;;;;20.30;10.32;;;;;;;0.23;100.00;99439.00;5244863;28;20041;-64
2023/03/08 06:18:15;;;;;;;21.48;11.70;;;;;;;0.22;100.00;99437.31;5256818;28;20455;-64
2023/03/08 06:21:01;;;;;;;20.20;10.25;;;;;;;0.21;100.00;99438.25;5249100;28;20045;-64
2023/03/08 06:23:34;;;;;;;21.17;9.63;;;;;;;0.21;100.00;99443.50;5248641;28;20029;-64
2023/03/08 06:26:07;;;;;;;17.73;9.65;;;;;;;0.14;100.00;99427.25;5253517;28;20158;-64
2023/03/08 06:28:39;;;;;;;18.17;8.83;;;;;;;0.04;100.00;99431.31;5251623;28;20055;-64
2023/03/08 06:31:12;;;;;;;16.85;8.85;;;;;;;-0.01;100.00;99435.03;5252883;28;20437;-65
2023/03/08 06:33:44;;;;;;;16.77;9.30;;;;;;;0.03;100.00;99424.41;5250236;28;20039;-65
2023/03/08 06:36:18;;;;;;;17.75;8.55;;;;;;;-0.05;100.00;99422.19;5252743;28;20295;-65
2023/03/08 06:38:49;;;;;;;17.90;8.00;;;;;;;-0.04;100.00;99419.50;5254592;28;20391;-65
2023/03/08 06:41:21;;;;;;;15.55;7.75;;;;;;;-0.07;100.00;99424.06;5248552;28;20025;-65
2023/03/08 06:43:52;;;;;;;13.75;6.93;;;;;;;-0.13;100.00;99419.16;5241070;28;20029;-64
2023/03/08 06:46:23;;;;;;;16.10;7.50;;;;;;;-0.15;100.00;99416.63;5249317;28;20057;-64
2023/03/08 06:48:54;;;;;;;13.43;6.07;;;;;;;-0.14;100.00;99414.84;5255373;28;20031;-64
2023/03/08 06:51:26;;;;;;;12.50;6.03;;;;;;;-0.24;100.00;99422.38;5249595;28;20063;-64
2023/03/08 06:53:57;;;;;;;11.95;6.10;;;;;;;-0.18;100.00;99431.69;5252685;28;20036;-64
2023/03/08 06:56:29;;;;;;;10.80;5.40;;;;;;;-0.28;100.00;99433.97;5254634;28;20071;-64
2023/03/08 06:59:00;;;;;;;9.60;4.40;;;;;;;-0.30;100.00;99428.78;5251757;28;20025;-64
2023/03/08 07:01:31;;;;;;;9.27;5.15;;;;;;;-0.35;100.00;99425.56;5253488;28;20029;-64
2023/03/08 07:04:02;;;;;;;9.32;4.97;;;;;;;-0.31;100.00;99424.47;5252305;28;20028;-64
2023/03/08 07:06:34;;;;;;;10.60;5.28;;;;;;;-0.33;100.00;99421.09;5250432;28;20036;-64
2023/03/08 07:09:05;;;;;;;12.35;5.60;;;;;;;-0.29;100.00;99421.75;5255148;28;20358;-64
2023/03/08 07:11:38;;;;;;;9.90;5.18;;;;;;;-0.33;100.00;99407.13;5254488;28;20063;-64
2023/03/08 07:14:09;;;;;;;9.73;5.50;;;;;;;-0.37;100.00;99408.25;5246198;28;20036;-64
2023/03/08 07:16:40;;;;;;;11.85;4.85;;;;;;;-0.40;100.00;99411.88;5247682;28;20043;-64
2023/03/08 07:19:12;;;;;;;10.55;5.72;;;;;;;-0.35;100.00;99403.75;5244915;28;20039;-64
2023/03/08 07:21:43;;;;;;;10.57;4.68;;;;;;;-0.43;100.00;99407.63;5251872;28;20017;-64
2023/03/08 07:24:14;;;;;;;10.95;5.00;;;;;;;-0.46;100.00;99399.97;5249753;28;20056;-64
2023/03/08 07:26:46;;;;;;;11.68;5.45;;;;;;;-0.42;100.00;99400.66;5249037;28;20040;-64
2023/03/08 07:29:17;;;;;;;9.65;4.40;;;;;;;-0.48;100.00;99390.47;5247629;28;20144;-64
2023/03/08 07:31:48;;;;;;;11.23;4.53;;;;;;;-0.50;100.00;99385.34;5248496;28;20033;-64
2023/03/08 07:34:20;;;;;;;8.20;4.63;;;;;;;-0.51;100.00;99383.63;5245348;28;20163;-63
2023/03/08 07:36:51;;;;;;;10.95;4.85;;;;;;;-0.50;100.00;99384.47;5250729;28;20395;-64
2023/03/08 07:39:22;;;;;;;10.23;4.60;;;;;;;-0.53;100.00;99375.03;5248819;28;20476;-63
2023/03/08 07:41:54;;;;;;;8.77;4.60;;;;;;;-0.48;100.00;99380.00;5250229;28;20112;-63
2023/03/08 07:44:25;;;;;;;9.07;5.05;;;;;;;-0.42;100.00;99371.81;5237196;28;20025;-64
2023/03/08 07:46:56;;;;;;;10.35;5.57;;;;;;;-0.48;100.00;99373.00;5248969;28;20099;-63
2023/03/08 07:49:28;;;;;;;10.90;5.40;;;;;;;-0.48;100.00;99369.53;5252588;28;20532;-63
2023/03/08 07:51:59;;;;;;;10.75;5.47;;;;;;;-0.53;100.00;99375.03;5251343;28;20033;-64
2023/03/08 07:54:30;;;;;;;14.43;7.30;;;;;;;-0.44;100.00;99369.28;5250415;28;20557;-64
2023/03/08 07:57:02;;;;;;;12.15;6.53;;;;;;;-0.44;100.00;99368.41;5253425;28;20024;-63
2023/03/08 07:59:33;;;;;;;13.02;7.00;;;;;;;-0.46;100.00;99360.66;5249456;28;20033;-63
2023/03/08 08:02:05;;;;;;;14.30;7.75;;;;;;;-0.43;100.00;99355.25;5254176;28;20102;-63
2023/03/08 08:04:36;;;;;;;15.32;7.97;;;;;;;-0.41;100.00;99344.69;5247469;28;20786;-63
2023/03/08 08:07:13;;;;;;;13.65;7.53;;;;;;;-0.39;100.00;99342.81;5244670;28;20029;-63
2023/03/08 08:09:45;;;;;;;17.17;9.05;;;;;;;-0.40;100.00;99349.84;5237968;28;20095;-63
2023/03/08 08:12:17;;;;;;;17.05;8.55;;;;;;;-0.39;100.00;99350.69;5242325;28;20124;-63
2023/03/08 08:14:52;;;;;;;14.57;8.13;;;;;;;-0.38;100.00;99347.13;5248642;28;20095;-64
2023/03/08 08:17:23;;;;;;;17.20;9.27;;;;;;;-0.31;100.00;99347.63;5248672;28;20035;-63
2023/03/08 08:19:54;;;;;;;16.63;9.48;;;;;;;-0.35;100.00;99339.09;5252255;28;20583;-63
2023/03/08 08:22:25;;;;;;;15.23;8.80;;;;;;;-0.36;100.00;99331.34;5250745;28;20383;-63
2023/03/08 08:24:57;;;;;;;16.73;9.75;;;;;;;-0.36;100.00;99316.47;5251393;28;20689;-64
2023/03/08 08:27:28;;;;;;;18.27;9.77;;;;;;;-0.34;100.00;99317.22;5252194;28;20064;-64
2023/03/08 08:29:59;;;;;;;18.08;9.48;;;;;;;-0.35;100.00;99310.25;5245698;28;20033;-64
2023/03/08 08:32:33;;;;;;;20.33;11.40;;;;;;;-0.36;100.00;99305.97;5245765;28;20133;-63
2023/03/08 08:35:05;;;;;;;17.63;10.40;;;;;;;-0.39;100.00;99311.38;5247726;28;20032;-63
2023/03/08 08:37:36;;;;;;;15.20;9.10;;;;;;;-0.36;100.00;99302.53;5252360;28;20301;-63
2023/03/08 08:40:09;;;;;;;16.42;9.23;;;;;;;-0.40;100.00;99297.44;5252285;28;20037;-64
2023/03/08 08:42:40;;;;;;;15.45;8.70;;;;;;;-0.40;100.00;99293.97;5252639;28;20270;-63
2023/03/08 08:45:11;;;;;;;13.10;7.50;;;;;;;-0.43;100.00;99288.91;5250646;28;20033;-63
2023/03/08 08:47:44;;;;;;;13.93;7.90;;;;;;;-0.42;100.00;99298.47;5252081;28;20032;-63
2023/03/08 08:50:15;;;;;;;13.02;7.90;;;;;;;-0.45;100.00;99304.69;5250311;28;20033;-64
2023/03/08 08:52:47;;;;;;;16.17;8.95;;;;;;;-0.41;100.00;99308.00;5249757;28;20040;-64
2023/03/08 08:55:18;;;;;;;15.55;8.20;;;;;;;-0.42;100.00;99307.16;5249144;28;20471;-63
2023/03/08 08:57:49;;;;;;;14.20;7.57;;;;;;;-0.40;100.00;99326.25;5251731;28;20483;-64
2023/03/08 09:00:21;;;;;;;15.77;8.55;;;;;;;-0.35;100.00;99327.78;5249249;28;20029;-64
2023/03/08 09:02:52;;;;;;;16.15;8.63;;;;;;;-0.32;100.00;99325.00;5251850;28;20033;-64
2023/03/08 09:05:23;;;;;;;15.13;8.88;;;;;;;-0.30;100.00;99331.81;5249530;28;20037;-64
2023/03/08 09:07:59;;;;;;;17.45;9.95;;;;;;;-0.28;100.00;99337.81;5252541;28;20108;-64
2023/03/08 09:10:32;;;;;;;16.25;9.48;;;;;;;-0.35;100.00;99331.22;5252275;28;20029;-64
2023/03/08 09:13:04;;;;;;;17.80;9.83;;;;;;;-0.34;100.00;99324.25;5254368;28;20025;-64
2023/03/08 09:15:36;;;;;;;18.48;10.02;;;;;;;-0.37;100.00;99301.66;5253130;28;20040;-64
2023/03/08 09:18:07;;;;;;;20.13;11.00;;;;;;;-0.31;100.00;99282.13;5254735;28;20028;-64
2023/03/08 09:20:38;;;;;;;17.42;10.13;;;;;;;-0.34;100.00;99269.22;5254388;28;20032;-64
2023/03/08 09:23:10;;;;;;;17.30;10.20;;;;;;;-0.36;100.00;99260.59;5253857;28;20326;-64
2023/03/08 09:25:41;;;;;;;19.25;10.23;;;;;;;-0.36;100.00;99261.44;5255736;28;20025;-64
2023/03/08 09:28:12;;;;;;;21.02;11.10;;;;;;;-0.33;100.00;99253.38;5254283;28;20411;-64
2023/03/08 09:30:43;;;;;;;23.33;11.30;;;;;;;-0.31;100.00;99248.03;5252881;28;20040;-64
2023/03/08 09:33:15;;;;;;;19.83;11.10;;;;;;;-0.27;100.00;99242.56;5252390;28;20094;-65
2023/03/08 09:35:57;;;;;;;19.85;10.80;;;;;;;-0.23;100.00;99241.44;5253465;28;20021;-64
2023/03/08 09:38:28;;;;;;;16.48;9.95;;;;;;;-0.23;100.00;99240.59;5251849;28;20528;-64
2023/03/08 09:41:35;;;;;;;18.95;9.75;;;;;;;-0.21;100.00;99241.38;5252245;28;20116;-65
2023/03/08 09:44:22;;;;;;;14.60;8.88;;;;;;;-0.16;100.00;99234.06;5249014;28;20033;-65
2023/03/08 09:47:01;;;;;;;19.95;9.75;;;;;;;-0.20;100.00;99225.53;5253717;28;20037;-65
2023/03/08 09:49:35;;;;;;;14.75;9.05;;;;;;;-0.15;100.00;99227.03;5253605;28;20047;-66
2023/03/08 09:52:16;;;;;;;16.98;9.52;;;;;;;-0.11;100.00;99220.69;5249179;28;20029;-65
2023/03/08 09:54:49;;;;;;;19.00;10.90;;;;;;;-0.03;100.00;99234.19;5255423;28;20032;-66
2023/03/08 09:57:28;;;;;;;21.48;10.98;;;;;;;0.01;100.00;99227.00;5254039;28;20040;-66
2023/03/08 10:00:07;;;;;;;19.48;11.40;;;;;;;0.01;100.00;99225.22;5254759;28;20043;-65
2023/03/08 10:03:02;;;;;;;26.27;13.07;;;;;;;0.10;100.00;99216.81;5252293;28;20435;-65
2023/03/08 10:05:37;;;;;;;21.58;13.27;;;;;;;0.09;100.00;99196.75;5251910;28;20561;-66
2023/03/08 10:08:15;;;;;;;23.38;14.93;;;;;;;0.16;100.00;99215.59;5248619;28;20464;-66
2023/03/08 10:11:00;;;;;;;23.92;16.05;;;;;;;0.24;100.00;99213.34;5253269;28;20039;-65
2023/03/08 10:13:39;;;;;;;31.10;17.52;;;;;;;0.32;100.00;99232.09;5251885;28;20035;-66
2023/03/08 10:16:34;;;;;;;29.30;17.50;;;;;;;0.38;100.00;99231.75;5255679;28;20399;-65
2023/03/08 10:19:13;;;;;;;29.45;17.55;;;;;;;0.36;100.00;99230.94;5253184;28;20074;-65
2023/03/08 10:21:45;;;;;;;30.70;19.38;;;;;;;0.36;100.00;99219.63;5251954;28;20029;-65
2023/03/08 10:24:27;;;;;;;31.88;19.55;;;;;;;0.41;100.00;99219.38;5249441;28;20108;-65
2023/03/08 10:27:23;;;;;;;31.35;19.60;;;;;;;0.46;100.00;99212.91;5250041;28;20464;-65
2023/03/08 10:29:57;;;;;;;33.38;20.45;;;;;;;0.49;100.00;99207.44;5247922;28;20048;-65
2023/03/08 10:32:28;;;;;;;34.97;21.60;;;;;;;0.52;100.00;99203.81;5249344;28;20117;-65
2023/03/08 10:35:02;;;;;;;33.72;21.20;;;;;;;0.58;100.00;99213.94;5250323;28;20036;-65
2023/03/08 10:37:33;;;;;;;36.90;20.63;;;;;;;0.60;100.00;99219.09;5251262;28;20241;-65
2023/03/08 10:40:09;;;;;;;31.50;19.92;;;;;;;0.63;100.00;99203.97;5251944;28;20042;-65
2023/03/08 10:43:05;;;;;;;30.02;19.23;;;;;;;0.65;100.00;99193.38;5253155;28;20449;-65
2023/03/08 10:45:36;;;;;;;30.48;19.77;;;;;;;0.67;100.00;99173.13;5254516;28;20032;-64
2023/03/08 10:48:19;;;;;;;32.38;20.45;;;;;;;0.72;100.00;99171.91;5248496;28;20451;-65
2023/03/08 10:50:58;;;;;;;31.13;19.65;;;;;;;0.70;100.00;99186.91;5252411;28;20033;-65
2023/03/08 10:53:31;;;;;;;30.05;18.80;;;;;;;0.72;100.00;99176.31;5250156;28;20021;-65
2023/03/08 10:56:19;;;;;;;28.40;18.73;;;;;;;0.70;100.00;99183.44;5247190;28;20033;-65
2023/03/08 10:58:54;;;;;;;29.23;18.95;;;;;;;0.71;100.00;99183.34;5249218;28;20028;-64
2023/03/08 11:01:27;;;;;;;30.08;19.48;;;;;;;0.72;100.00;99192.06;5249423;28;20043;-65
2023/03/08 11:04:04;;;;;;;28.98;18.92;;;;;;;0.77;100.00;99203.97;5247637;28;20025;-64
2023/03/08 11:06:35;;;;;;;28.98;18.92;;;;;;;0.74;100.00;99201.53;5249630;28;20032;-65
2023/03/08 11:09:28;;;;;;;29.92;18.55;;;;;;;0.76;100.00;99198.81;5249965;28;20357;-65
2023/03/08 11:11:59;;;;;;;29.10;18.65;;;;;;;0.73;100.00;99202.47;5246773;28;21430;-65
2023/03/08 11:14:31;;;;;;;27.63;18.48;;;;;;;0.74;100.00;99201.53;5247896;28;20032;-65
2023/03/08 11:17:18;;;;;;;26.52;17.95;;;;;;;0.69;100.00;99197.50;5249984;28;20067;-64
2023/03/08 11:20:12;;;;;;;28.75;19.38;;;;;;;0.68;100.00;99193.19;5248538;28;20033;-64
2023/03/08 11:23:10;;;;;;;27.75;18.10;;;;;;;0.68;100.00;99170.41;5248772;28;20029;-64
2023/03/08 11:26:00;;;;;;;27.35;17.92;;;;;;;0.73;100.00;99157.00;5253079;28;20147;-64
2023/03/08 11:29:06;;;;;;;26.33;17.98;;;;;;;0.76;100.00;99178.63;5250902;28;20037;-64
2023/03/08 11:31:58;;;;;;;27.75;17.80;;;;;;;0.82;100.00;99176.59;5249642;28;20044;-64
2023/03/08 11:34:29;;;;;;;26.33;17.20;;;;;;;0.83;100.00;99186.16;5248690;28;20041;-64
2023/03/08 11:37:19;;;;;;;28.73;19.02;;;;;;;0.94;100.00;99179.28;5242034;28;20059;-64
2023/03/08 11:40:01;;;;;;;28.20;18.13;;;;;;;0.91;100.00;99176.00;5248729;28;20071;-64
2023/03/08 11:42:58;;;;;;;25.90;17.27;;;;;;;0.95;100.00;99172.25;5246422;28;20029;-64
2023/03/08 11:45:48;;;;;;;24.88;16.55;;;;;;;0.94;100.00;99152.16;5248526;28;20697;-65